createdAt,value
2022-09-03T00:01:42.754Z,54.43
2022-09-03T00:05:05.423Z,54.49
2022-09-03T00:08:28.547Z,54.48
2022-09-03T00:11:58.853Z,54.56
2022-09-03T00:14:52.392Z,54.61
2022-09-03T00:17:50.142Z,54.65
2022-09-03T00:20:42.840Z,54.45
2022-09-03T00:23:31.395Z,54.78
2022-09-03T00:26:27.291Z,54.59
2022-09-03T00:29:20.205Z,54.53
2022-09-03T00:32:14.868Z,54.53
2022-09-03T00:35:04.712Z,54.43
2022-09-03T00:37:52.490Z,54.50
2022-09-03T00:40:54.497Z,54.59
2022-09-03T00:43:55.003Z,54.55
2022-09-03T00:47:11.332Z,54.48
2022-09-03T00:50:18.019Z,54.55
2022-09-03T00:53:40.818Z,54.63
2022-09-03T00:56:31.292Z,54.72
2022-09-03T00:59:25.318Z,54.58
2022-09-03T01:02:34.192Z,54.55
2022-09-03T01:05:38.394Z,54.59
2022-09-03T01:08:35.872Z,54.41
2022-09-03T01:11:27.556Z,54.61
2022-09-03T01:14:57.660Z,54.69
2022-09-03T01:17:52.296Z,54.60
2022-09-03T01:20:47.127Z,54.71
2022-09-03T01:23:55.723Z,54.65
2022-09-03T01:26:59.696Z,54.71
2022-09-03T01:29:55.608Z,54.69
2022-09-03T01:33:14.236Z,54.63
2022-09-03T01:36:17.120Z,54.64
2022-09-03T01:39:06.492Z,54.75
2022-09-03T01:42:20.255Z,54.53
2022-09-03T01:45:21.608Z,54.77
2022-09-03T01:48:22.281Z,54.73
2022-09-03T01:51:21.004Z,54.72
2022-09-03T01:54:26.618Z,54.57
2022-09-03T01:57:37.087Z,54.73
2022-09-03T02:00:25.135Z,54.79
2022-09-03T02:03:12.634Z,54.82
2022-09-03T02:05:57.972Z,54.60
2022-09-03T02:08:43.422Z,54.71
2022-09-03T02:11:28.969Z,54.76
2022-09-03T02:14:14.992Z,54.69
2022-09-03T02:17:02.179Z,54.64
2022-09-03T02:19:48.019Z,54.59
2022-09-03T02:22:34.630Z,54.55
2022-09-03T02:25:21.195Z,54.80
2022-09-03T02:28:17.150Z,54.47
2022-09-03T02:31:03.962Z,54.55
2022-09-03T02:33:50.958Z,54.59
2022-09-03T02:36:42.500Z,54.74
2022-09-03T02:39:29.010Z,54.52
2022-09-03T02:42:15.936Z,54.52
2022-09-03T02:45:14.192Z,54.54
2022-09-03T02:48:00.637Z,54.57
2022-09-03T02:50:46.091Z,54.64
2022-09-03T02:53:31.507Z,54.52
2022-09-03T02:56:16.629Z,54.54
2022-09-03T02:59:03.752Z,54.64
2022-09-03T03:01:49.957Z,55.12
2022-09-03T03:04:35.105Z,55.33
2022-09-03T03:07:20.550Z,55.44
2022-09-03T03:10:06.087Z,55.79
2022-09-03T03:12:51.430Z,55.74
2022-09-03T03:15:36.725Z,55.83
2022-09-03T03:18:21.890Z,55.90
2022-09-03T03:21:10.326Z,55.92
2022-09-03T03:23:55.579Z,56.23
2022-09-03T03:26:41.262Z,56.07
2022-09-03T03:29:26.641Z,56.33
2022-09-03T03:32:11.928Z,56.38
2022-09-03T03:34:57.337Z,56.54
2022-09-03T03:37:42.535Z,56.52
2022-09-03T03:40:28.028Z,56.64
2022-09-03T03:43:13.499Z,56.72
2022-09-03T03:45:59.054Z,56.84
2022-09-03T03:48:47.492Z,56.77
2022-09-03T03:51:33.927Z,56.78
2022-09-03T03:54:19.611Z,56.86
2022-09-03T03:57:05.120Z,56.84
2022-09-03T03:59:50.690Z,56.79
2022-09-03T04:02:39.048Z,56.89
2022-09-03T04:05:24.512Z,56.82
2022-09-03T04:08:09.887Z,56.96
2022-09-03T04:11:00.381Z,56.86
2022-09-03T04:13:47.465Z,56.86
2022-09-03T04:16:33.183Z,57.05
2022-09-03T04:19:19.397Z,56.89
2022-09-03T04:22:04.979Z,56.97
2022-09-03T04:24:50.182Z,57.04
2022-09-03T04:27:35.571Z,57.14
2022-09-03T04:30:21.297Z,57.09
2022-09-03T04:33:06.913Z,57.05
2022-09-03T04:36:05.555Z,57.16
2022-09-03T04:38:54.494Z,57.01
2022-09-03T04:41:39.852Z,57.03
2022-09-03T04:44:25.071Z,56.97
2022-09-03T04:47:10.432Z,57.06
2022-09-03T04:49:55.880Z,56.99
2022-09-03T04:52:41.375Z,56.97
2022-09-03T04:55:27.144Z,56.76
2022-09-03T04:58:12.556Z,56.62
2022-09-03T05:00:58.113Z,56.17
2022-09-03T05:03:44.315Z,55.94
2022-09-03T05:06:31.583Z,55.73
2022-09-03T05:09:16.854Z,55.89
2022-09-03T05:12:02.413Z,55.49
2022-09-03T05:14:49.281Z,55.54
2022-09-03T05:17:37.660Z,55.46
2022-09-03T05:20:23.603Z,54.09
2022-09-03T05:23:09.118Z,54.32
2022-09-03T05:25:59.839Z,54.20
2022-09-03T05:28:46.360Z,54.21
2022-09-03T05:31:32.113Z,54.64
2022-09-03T05:34:18.387Z,54.64
2022-09-03T05:37:04.662Z,54.05
2022-09-03T05:39:50.327Z,54.22
2022-09-03T05:42:38.003Z,53.77
2022-09-03T05:45:23.395Z,53.28
2022-09-03T05:48:08.632Z,53.07
2022-09-03T05:51:02.048Z,53.43
2022-09-03T05:53:49.489Z,53.61
2022-09-03T05:56:36.299Z,53.54
2022-09-03T05:59:21.536Z,53.79
2022-09-03T06:02:06.807Z,52.57
2022-09-03T06:04:52.084Z,53.09
2022-09-03T06:07:37.774Z,53.40
2022-09-03T06:10:26.650Z,53.54
2022-09-03T06:13:14.993Z,53.75
2022-09-03T06:16:02.202Z,53.84
2022-09-03T06:18:47.752Z,53.95
2022-09-03T06:21:33.363Z,53.85
2022-09-03T06:24:26.504Z,54.08
2022-09-03T06:27:13.522Z,54.08
2022-09-03T06:29:59.956Z,54.00
2022-09-03T06:32:48.445Z,54.23
2022-09-03T06:35:42.751Z,54.27
2022-09-03T06:38:32.118Z,54.48
2022-09-03T06:41:21.498Z,54.30
2022-09-03T06:44:13.286Z,54.46
2022-09-03T06:47:01.633Z,54.50
2022-09-03T06:49:46.922Z,54.39
2022-09-03T06:52:32.162Z,54.42
2022-09-03T06:55:17.324Z,54.44
2022-09-03T06:58:02.891Z,54.44
2022-09-03T07:00:49.784Z,54.75
2022-09-03T07:03:36.650Z,54.40
2022-09-03T07:06:24.192Z,55.87
2022-09-03T07:09:11.410Z,54.90
2022-09-03T07:11:56.675Z,55.00
2022-09-03T07:14:42.108Z,55.06
2022-09-03T07:17:28.371Z,54.84
2022-09-03T07:20:13.771Z,54.88
2022-09-03T07:22:58.966Z,54.58
2022-09-03T07:25:44.198Z,54.48
2022-09-03T07:28:30.379Z,54.63
2022-09-03T07:31:25.399Z,54.78
2022-09-03T07:34:12.750Z,54.12
2022-09-03T07:36:58.081Z,54.49
2022-09-03T07:39:43.725Z,54.43
2022-09-03T07:42:29.092Z,54.69
2022-09-03T07:45:14.491Z,54.40
2022-09-03T07:48:00.450Z,54.11
2022-09-03T07:50:47.725Z,53.66
2022-09-03T07:53:34.298Z,54.38
2022-09-03T07:56:20.202Z,54.28
2022-09-03T07:59:05.919Z,54.22
2022-09-03T08:01:52.212Z,54.16
2022-09-03T08:04:38.607Z,53.80
2022-09-03T08:07:23.828Z,54.13
2022-09-03T08:10:09.444Z,54.14
2022-09-03T08:12:55.035Z,52.79
2022-09-03T08:15:42.965Z,52.25
2022-09-03T08:18:32.034Z,53.22
2022-09-03T08:21:20.214Z,53.44
2022-09-03T08:24:06.616Z,52.43
2022-09-03T08:26:52.733Z,52.15
2022-09-03T08:29:38.522Z,52.11
2022-09-03T08:32:24.290Z,52.02
2022-09-03T08:35:09.663Z,52.52
2022-09-03T08:37:56.765Z,52.44
2022-09-03T08:40:45.762Z,53.34
2022-09-03T08:43:36.954Z,53.04
2022-09-03T08:46:32.572Z,52.29
2022-09-03T08:49:44.361Z,52.43
2022-09-03T08:52:32.618Z,51.68
2022-09-03T08:55:29.684Z,52.26
2022-09-03T08:58:29.914Z,52.26
2022-09-03T09:01:31.905Z,52.09
2022-09-03T09:04:35.806Z,52.40
2022-09-03T09:07:49.710Z,52.43
2022-09-03T09:10:46.217Z,52.33
2022-09-03T09:13:44.046Z,52.35
2022-09-03T09:16:55.500Z,52.52
2022-09-03T09:20:07.088Z,52.38
2022-09-03T09:23:02.879Z,52.35
2022-09-03T09:25:50.507Z,52.07
2022-09-03T09:28:38.088Z,52.05
2022-09-03T09:31:23.835Z,52.33
2022-09-03T09:34:09.849Z,52.56
2022-09-03T09:36:56.355Z,52.58
2022-09-03T09:39:59.124Z,52.04
2022-09-03T09:42:44.875Z,52.26
2022-09-03T09:45:32.563Z,52.62
2022-09-03T09:48:31.643Z,53.04
2022-09-03T09:51:22.784Z,52.87
2022-09-03T09:54:20.089Z,52.86
2022-09-03T09:57:07.421Z,52.97
2022-09-03T10:00:22.734Z,52.79
2022-09-03T10:03:13.810Z,52.34
2022-09-03T10:06:26.157Z,52.64
2022-09-03T10:09:18.718Z,52.65
2022-09-03T10:12:19.764Z,52.84
2022-09-03T10:15:24.705Z,52.85
2022-09-03T10:18:17.666Z,53.17
2022-09-03T10:21:15.659Z,52.72
2022-09-03T10:24:14.046Z,53.04
2022-09-03T10:26:59.524Z,53.20
2022-09-03T10:29:45.779Z,52.22
2022-09-03T10:32:49.377Z,51.68
2022-09-03T10:35:46.286Z,50.37
2022-09-03T10:38:37.977Z,50.21
2022-09-03T10:41:55.930Z,49.59
2022-09-03T10:45:09.883Z,48.96
2022-09-03T10:48:07.258Z,48.56
2022-09-03T10:51:04.687Z,47.60
2022-09-03T10:54:12.764Z,47.48
2022-09-03T10:57:10.185Z,47.45
2022-09-03T11:00:10.396Z,47.88
2022-09-03T11:03:31.237Z,47.94
2022-09-03T11:06:28.616Z,47.96
2022-09-03T11:09:19.877Z,47.98
2022-09-03T11:12:11.612Z,47.63
2022-09-03T11:15:03.818Z,47.36
2022-09-03T11:17:56.911Z,47.39
2022-09-03T11:20:43.127Z,47.64
2022-09-03T11:23:31.602Z,47.64
2022-09-03T11:26:19.726Z,48.01
2022-09-03T11:29:24.985Z,48.52
2022-09-03T11:32:18.163Z,48.45
2022-09-03T11:35:14.928Z,48.43
2022-09-03T11:38:01.581Z,48.60
2022-09-03T11:41:15.816Z,48.86
2022-09-03T11:44:17.266Z,49.08
2022-09-03T11:47:16.201Z,48.84
2022-09-03T11:50:21.168Z,48.85
2022-09-03T11:53:10.918Z,49.00
2022-09-03T11:56:00.801Z,48.90
2022-09-03T11:59:19.691Z,49.03
2022-09-03T12:02:23.589Z,49.07
2022-09-03T12:05:54.129Z,49.08
2022-09-03T12:08:52.937Z,49.55
2022-09-03T12:12:14.014Z,49.43
2022-09-03T12:15:05.938Z,49.15
2022-09-03T12:18:16.575Z,49.38
2022-09-03T12:21:05.944Z,49.18
2022-09-03T12:23:58.497Z,49.13
2022-09-03T12:26:44.240Z,49.08
2022-09-03T12:29:31.739Z,49.08
2022-09-03T12:32:18.669Z,49.56
2022-09-03T12:38:29.467Z,49.41
2022-09-03T12:42:01.638Z,49.98
2022-09-03T12:44:47.250Z,50.01
2022-09-03T12:47:39.209Z,49.96
2022-09-03T12:50:25.681Z,50.07
2022-09-03T12:53:14.540Z,49.70
2022-09-03T12:56:02.087Z,49.63
2022-09-03T12:58:56.673Z,49.59
2022-09-03T13:01:49.499Z,49.69
2022-09-03T13:04:37.799Z,49.59
2022-09-03T13:07:23.624Z,49.44
2022-09-03T13:10:24.153Z,49.08
2022-09-03T13:13:37.113Z,49.08
2022-09-03T13:16:49.019Z,49.23
2022-09-03T13:19:34.498Z,49.04
2022-09-03T13:22:22.739Z,49.24
2022-09-03T13:25:30.548Z,49.43
2022-09-03T13:28:23.916Z,49.40
2022-09-03T13:31:41.367Z,49.33
2022-09-03T13:34:35.536Z,49.47
2022-09-03T13:37:58.219Z,49.35
2022-09-03T13:40:48.694Z,49.51
2022-09-03T13:44:03.100Z,49.43
2022-09-03T13:46:54.923Z,49.56
2022-09-03T13:50:10.307Z,49.80
2022-09-03T13:53:08.314Z,49.92
2022-09-03T13:55:57.963Z,49.85
2022-09-03T13:58:50.916Z,49.79
2022-09-03T14:02:02.244Z,49.73
2022-09-03T14:05:18.705Z,50.03
2022-09-03T14:08:26.259Z,49.86
2022-09-03T14:11:29.023Z,50.28
2022-09-03T14:14:17.566Z,50.57
2022-09-03T14:17:08.787Z,50.38
2022-09-03T14:20:07.189Z,50.58
2022-09-03T14:23:03.245Z,50.77
2022-09-03T14:25:55.901Z,50.78
2022-09-03T14:28:50.141Z,50.59
2022-09-03T14:32:09.808Z,50.41
2022-09-03T14:35:23.205Z,50.63
2022-09-03T14:38:59.261Z,50.33
2022-09-03T14:41:47.696Z,50.44
2022-09-03T14:44:36.151Z,50.33
2022-09-03T14:47:43.016Z,50.28
2022-09-03T14:50:46.293Z,50.10
2022-09-03T14:53:37.877Z,50.34
2022-09-03T14:56:44.462Z,50.10
2022-09-03T14:59:50.391Z,49.86
2022-09-03T15:02:48.369Z,49.71
2022-09-03T15:06:00.374Z,49.27
2022-09-03T15:09:28.890Z,49.36
2022-09-03T15:12:14.344Z,49.64
2022-09-03T15:15:05.227Z,49.45
2022-09-03T15:18:00.231Z,49.25
2022-09-03T15:20:50.895Z,49.19
2022-09-03T15:24:01.035Z,48.85
2022-09-03T15:27:20.706Z,48.76
2022-09-03T15:30:10.101Z,48.60
2022-09-03T15:32:55.337Z,48.79
2022-09-03T15:35:52.653Z,48.78
2022-09-03T15:38:47.805Z,48.50
2022-09-03T15:41:57.434Z,48.79
2022-09-03T15:44:54.098Z,48.92
2022-09-03T15:47:52.064Z,48.33
2022-09-03T15:50:53.151Z,48.05
2022-09-03T15:54:04.989Z,48.58
2022-09-03T15:56:59.807Z,48.54
2022-09-03T15:59:45.501Z,48.41
2022-09-03T16:02:44.566Z,48.56
2022-09-03T16:06:08.150Z,48.42
2022-09-03T16:09:07.284Z,48.48
2022-09-03T16:12:27.852Z,48.44
2022-09-03T16:15:23.392Z,48.41
2022-09-03T16:18:36.920Z,48.50
2022-09-03T16:21:44.422Z,48.60
2022-09-03T16:24:43.441Z,48.62
2022-09-03T16:27:46.536Z,48.52
2022-09-03T16:30:37.734Z,48.69
2022-09-03T16:33:42.010Z,48.95
2022-09-03T16:36:27.492Z,48.85
2022-09-03T16:39:37.466Z,49.09
2022-09-03T16:42:27.242Z,49.15
2022-09-03T16:45:35.628Z,49.17
2022-09-03T16:48:20.720Z,49.40
2022-09-03T16:52:05.641Z,49.30
2022-09-03T16:55:31.877Z,49.18
2022-09-03T16:58:30.979Z,49.44
2022-09-03T17:01:42.508Z,49.52
2022-09-03T17:04:59.035Z,49.42
2022-09-03T17:08:01.385Z,49.61
2022-09-03T17:11:00.391Z,49.85
2022-09-03T17:13:56.256Z,49.80
2022-09-03T17:17:19.662Z,49.73
2022-09-03T17:20:49.370Z,49.85
2022-09-03T17:23:59.811Z,49.81
2022-09-03T17:27:04.381Z,49.83
2022-09-03T17:30:05.936Z,49.96
2022-09-03T17:33:07.355Z,50.16
2022-09-03T17:36:07.105Z,50.50
2022-09-03T17:38:52.552Z,50.44
2022-09-03T17:41:54.780Z,50.75
2022-09-03T17:44:47.086Z,51.14
2022-09-03T17:47:50.740Z,51.50
2022-09-03T17:50:50.769Z,51.74
2022-09-03T17:54:03.975Z,51.91
2022-09-03T17:57:05.592Z,52.04
2022-09-03T18:00:00.070Z,52.35
2022-09-03T18:02:55.006Z,52.45
2022-09-03T18:05:50.612Z,52.58
2022-09-03T18:09:01.702Z,52.54
2022-09-03T18:11:49.770Z,52.37
2022-09-03T18:14:55.934Z,52.64
2022-09-03T18:17:53.246Z,52.70
2022-09-03T18:21:29.257Z,52.72
2022-09-03T18:24:51.175Z,52.70
2022-09-03T18:27:59.342Z,52.86
2022-09-03T18:31:04.243Z,52.71
2022-09-03T18:34:08.258Z,52.91
2022-09-03T18:37:16.401Z,53.20
2022-09-03T18:40:20.272Z,53.36
2022-09-03T18:43:42.073Z,53.43
2022-09-03T18:48:01.829Z,53.72
2022-09-03T18:50:55.685Z,53.58
2022-09-03T18:54:09.181Z,53.42
2022-09-03T18:57:13.439Z,53.33
2022-09-03T19:00:29.142Z,53.82
2022-09-03T19:03:54.185Z,53.93
2022-09-03T19:07:40.064Z,54.20
2022-09-03T19:10:52.723Z,54.53
2022-09-03T19:13:59.282Z,55.19
2022-09-03T19:17:28.240Z,55.37
2022-09-03T19:20:50.314Z,55.27
2022-09-03T19:23:54.372Z,55.39
2022-09-03T19:27:46.076Z,55.57
2022-09-03T19:30:50.726Z,55.82
2022-09-03T19:34:16.662Z,55.84
2022-09-03T19:37:32.246Z,55.49
2022-09-03T19:40:50.442Z,55.57
2022-09-03T19:44:30.494Z,55.43
2022-09-03T19:48:02.456Z,55.25
2022-09-03T19:51:26.964Z,55.26
2022-09-03T19:54:30.616Z,55.35
2022-09-03T19:57:36.152Z,55.26
2022-09-03T20:00:40.610Z,55.18
2022-09-03T20:03:45.429Z,55.14
2022-09-03T20:06:52.895Z,55.22
2022-09-03T20:10:00.775Z,55.23
2022-09-03T20:12:56.137Z,55.08
2022-09-03T20:16:00.365Z,55.12
2022-09-03T20:19:18.284Z,55.03
2022-09-03T20:22:32.594Z,55.11
2022-09-03T20:25:26.813Z,55.15
2022-09-03T20:28:28.623Z,55.17
2022-09-03T20:31:27.325Z,55.11
2022-09-03T20:34:34.915Z,55.19
2022-09-03T20:37:41.644Z,55.01
2022-09-03T20:40:41.909Z,55.01
2022-09-03T20:43:49.531Z,55.06
2022-09-03T20:46:45.484Z,55.07
2022-09-03T20:49:38.198Z,54.93
2022-09-03T20:52:46.634Z,54.93
2022-09-03T20:55:42.956Z,54.95
2022-09-03T20:59:01.601Z,54.98
2022-09-03T21:02:01.499Z,54.94
2022-09-03T21:05:09.339Z,55.03
2022-09-03T21:08:33.513Z,54.89
2022-09-03T21:11:27.356Z,55.05
2022-09-03T21:14:18.745Z,55.05
2022-09-03T21:17:10.099Z,55.02
2022-09-03T21:20:24.869Z,55.22
2022-09-03T21:23:31.479Z,55.02
2022-09-03T21:26:16.934Z,55.03
2022-09-03T21:29:25.569Z,55.14
2022-09-03T21:32:25.063Z,55.19
2022-09-03T21:35:19.733Z,55.04
2022-09-03T21:38:14.123Z,54.99
2022-09-03T21:41:15.186Z,55.00
2022-09-03T21:44:05.517Z,54.95
2022-09-03T21:47:02.113Z,55.02
2022-09-03T21:50:00.564Z,54.96
2022-09-03T21:52:54.701Z,55.04
2022-09-03T21:56:13.757Z,54.94
2022-09-03T21:59:19.717Z,54.93
2022-09-03T22:02:25.619Z,54.93
2022-09-03T22:05:10.946Z,54.92
2022-09-03T22:08:22.547Z,55.04
2022-09-03T22:11:15.727Z,55.13
2022-09-03T22:14:10.260Z,55.04
2022-09-03T22:17:03.974Z,54.94
2022-09-03T22:19:50.321Z,54.93
2022-09-03T22:22:43.900Z,54.85
2022-09-03T22:25:52.496Z,54.87
2022-09-03T22:29:07.933Z,54.91
2022-09-03T22:32:04.035Z,54.85
2022-09-03T22:34:55.286Z,54.99
2022-09-03T22:37:57.252Z,54.87
2022-09-03T22:41:12.127Z,54.91
2022-09-03T22:44:09.290Z,54.97
2022-09-03T22:47:29.778Z,54.87
2022-09-03T22:50:24.819Z,55.03
2022-09-03T22:53:28.746Z,54.99
2022-09-03T22:56:22.128Z,54.89
2022-09-03T22:59:15.722Z,54.79
2022-09-03T23:02:22.336Z,54.96
2022-09-03T23:05:16.303Z,54.92
2022-09-03T23:08:10.644Z,54.97
2022-09-03T23:11:25.261Z,54.87
2022-09-03T23:14:34.367Z,54.88
2022-09-03T23:20:26.415Z,54.90
2022-09-03T23:23:22.176Z,54.88
2022-09-03T23:26:15.280Z,54.97
2022-09-03T23:29:40.746Z,54.72
2022-09-03T23:32:33.117Z,54.83
2022-09-03T23:35:19.527Z,54.99
2022-09-03T23:38:29.144Z,54.89
2022-09-03T23:41:25.968Z,54.87
2022-09-03T23:44:23.838Z,54.80
2022-09-03T23:47:54.624Z,54.93
2022-09-03T23:51:07.224Z,54.95
2022-09-03T23:54:11.034Z,54.79
2022-09-03T23:57:15.439Z,54.81
